Time;durP1;ratioP1;P1;durP2;ratioP2;P2;SDS_P1;SDS_P2;PMS_P1;PMS_P2;Temp;Humidity;BMP_temperature;BMP_pressure;BME280_temperature;BME280_humidity;BME280_pressure;Samples;Min_cycle;Max_cycle;Signal;HPM_P1;HPM_P2
2023/10/10 00:00:27;;;;;;;19.20;5.63;;;;;;;13.27;100.00;149434.34;5087016;28;20336;-65
2023/10/10 00:02:56;;;;;;;24.73;5.20;;;;;;;13.34;100.00;149450.53;5075436;28;20231;-65
2023/10/10 00:05:33;;;;;;;16.07;4.70;;;;;;;13.46;100.00;149479.31;5081425;28;20231;-64
2023/10/10 00:08:05;;;;;;;16.23;5.13;;;;;;;13.58;100.00;149509.28;5086962;28;20230;-64
2023/10/10 00:10:32;;;;;;;25.73;5.00;;;;;;;13.47;100.00;149481.81;5087086;28;20754;-65
2023/10/10 00:13:00;;;;;;;19.90;5.30;;;;;;;13.41;100.00;149468.00;5082741;28;20664;-64
2023/10/10 00:15:33;;;;;;;25.70;5.40;;;;;;;13.37;100.00;149459.31;5070183;28;20308;-65
2023/10/10 00:18:03;;;;;;;17.77;5.03;;;;;;;13.62;100.00;149517.97;5069241;28;20231;-65
2023/10/10 00:20:35;;;;;;;23.17;5.30;;;;;;;13.47;100.00;149481.81;5082765;28;20219;-63
2023/10/10 00:23:04;;;;;;;22.60;6.27;;;;;;;13.41;100.00;149468.00;5069382;28;20259;-63
2023/10/10 00:25:31;;;;;;;12.97;4.70;;;;;;;13.40;100.00;149465.53;5073756;28;20230;-63
2023/10/10 00:28:00;;;;;;;19.70;5.43;;;;;;;13.41;100.00;149469.34;5057884;28;20310;-63
2023/10/10 00:30:33;;;;;;;19.67;5.10;;;;;;;13.37;100.00;149459.31;5071250;28;20214;-63
2023/10/10 00:33:02;;;;;;;16.07;4.77;;;;;;;13.29;100.00;149440.56;5057811;28;20249;-65
2023/10/10 00:35:31;;;;;;;21.20;5.87;;;;;;;13.36;100.00;149456.81;5068178;27;20211;-65
2023/10/10 00:37:57;;;;;;;20.33;5.90;;;;;;;13.45;100.00;149478.03;5093171;28;20226;-65
2023/10/10 00:40:29;;;;;;;16.60;5.40;;;;;;;13.32;100.00;149446.81;5096460;28;21392;-65
2023/10/10 00:42:58;;;;;;;24.30;5.93;;;;;;;13.20;100.00;149418.16;5110094;27;20235;-65
2023/10/10 00:45:30;;;;;;;22.13;5.20;;;;;;;13.12;100.00;149398.19;5079443;28;20314;-65
2023/10/10 00:48:00;;;;;;;21.53;5.30;;;;;;;12.98;100.00;149365.75;5066403;28;20220;-65
2023/10/10 00:50:28;;;;;;;17.30;5.07;;;;;;;12.96;100.00;149360.75;5071635;28;20216;-65
2023/10/10 00:52:56;;;;;;;14.10;4.90;;;;;;;13.02;100.00;149374.47;5061465;28;20238;-65
2023/10/10 00:55:26;;;;;;;18.10;5.00;;;;;;;13.02;100.00;149374.47;5059084;28;20289;-65
2023/10/10 00:57:55;;;;;;;20.60;5.70;;;;;;;13.01;100.00;149371.97;5057498;28;20240;-65
2023/10/10 01:00:25;;;;;;;17.47;5.37;;;;;;;13.10;100.00;149393.19;5055362;28;20232;-65
2023/10/10 01:03:01;;;;;;;20.83;5.47;;;;;;;13.21;97.91;149419.38;5041532;28;21335;-65
2023/10/10 01:05:39;;;;;;;25.30;5.50;;;;;;;13.22;99.76;149421.88;5066709;28;20215;-65
2023/10/10 01:08:07;;;;;;;16.50;5.10;;;;;;;13.08;100.00;149388.22;5063525;28;20236;-64
2023/10/10 01:10:42;;;;;;;23.47;5.80;;;;;;;12.98;100.00;149365.75;5093407;28;20216;-65
2023/10/10 01:13:10;;;;;;;12.77;5.23;;;;;;;12.87;100.00;149337.03;5086254;28;20228;-65
2023/10/10 01:15:37;;;;;;;15.60;5.77;;;;;;;12.77;100.00;149314.59;5064529;28;20322;-65
2023/10/10 01:18:12;;;;;;;16.80;5.07;;;;;;;12.75;100.00;149308.38;5064599;28;20243;-65
2023/10/10 01:20:45;;;;;;;21.27;5.47;;;;;;;12.64;100.00;149282.22;5063472;28;20227;-65
2023/10/10 01:23:15;;;;;;;20.60;5.70;;;;;;;12.65;100.00;149284.69;5057747;28;20225;-66
2023/10/10 01:25:43;;;;;;;18.03;5.63;;;;;;;12.63;100.00;149279.72;5062042;28;20224;-66
2023/10/10 01:28:22;;;;;;;23.57;5.93;;;;;;;12.62;100.00;149277.22;5072006;28;20323;-66
2023/10/10 01:31:03;;;;;;;17.83;5.90;;;;;;;12.57;100.00;149264.75;5079566;28;20228;-66
2023/10/10 01:33:36;;;;;;;17.17;5.97;;;;;;;12.57;100.00;149264.75;5066460;28;20231;-66
2023/10/10 01:36:11;;;;;;;17.83;5.87;;;;;;;12.57;100.00;149265.97;5063395;28;20232;-66
2023/10/10 01:38:59;;;;;;;17.33;5.83;;;;;;;12.93;96.04;149352.00;5061500;28;20308;-65
2023/10/10 01:41:33;;;;;;;14.73;5.10;;;;;;;12.84;99.03;149330.81;5065366;28;20220;-63
2023/10/10 01:44:10;;;;;;;17.40;5.80;;;;;;;12.74;100.00;149305.88;5082088;28;20266;-66
2023/10/10 01:46:36;;;;;;;20.13;5.20;;;;;;;12.72;100.00;149302.13;5098343;28;20232;-66
2023/10/10 01:49:06;;;;;;;16.93;5.57;;;;;;;12.63;100.00;149280.94;5085854;28;20226;-65
2023/10/10 01:51:37;;;;;;;23.37;6.37;;;;;;;12.56;100.00;149263.47;5064716;28;20256;-64
2023/10/10 01:54:13;;;;;;;23.53;6.10;;;;;;;12.53;100.00;149256.00;5080675;28;20679;-66
2023/10/10 01:56:40;;;;;;;14.80;5.57;;;;;;;12.55;100.00;149262.25;5087123;28;20289;-64
2023/10/10 01:59:10;;;;;;;13.20;5.07;;;;;;;12.58;100.00;149268.47;5065922;28;20247;-65
2023/10/10 02:01:38;;;;;;;11.63;4.70;;;;;;;12.59;100.00;149270.97;5097360;27;20228;-65
2023/10/10 02:04:05;;;;;;;18.63;5.57;;;;;;;12.71;98.08;149299.66;5063413;28;20228;-65
2023/10/10 02:06:35;;;;;;;16.23;5.40;;;;;;;12.67;99.34;149289.69;5072683;28;20390;-65
2023/10/10 02:09:11;;;;;;;17.37;5.43;;;;;;;12.67;99.37;149289.69;5075806;28;20230;-65
2023/10/10 02:11:42;;;;;;;20.97;6.00;;;;;;;12.51;99.92;149251.00;5081350;28;20607;-65
2023/10/10 02:14:11;;;;;;;11.63;4.83;;;;;;;12.69;93.65;149295.91;5100709;27;20591;-65
2023/10/10 02:16:40;;;;;;;16.40;5.50;;;;;;;12.70;96.23;149297.16;5081397;28;20232;-65
2023/10/10 02:19:15;;;;;;;15.00;5.60;;;;;;;12.84;94.34;149332.06;5072420;28;20231;-65
2023/10/10 02:21:47;;;;;;;16.00;5.10;;;;;;;12.77;95.00;149314.59;5095386;28;20861;-65
2023/10/10 02:24:36;;;;;;;17.23;5.13;;;;;;;12.74;96.63;149305.88;5062644;28;20922;-65
2023/10/10 02:27:05;;;;;;;12.77;4.10;;;;;;;12.75;96.51;149308.38;5067517;28;20250;-65
2023/10/10 02:29:34;;;;;;;12.10;4.63;;;;;;;12.61;97.39;149274.72;5064175;28;20605;-65
2023/10/10 02:32:09;;;;;;;18.03;5.03;;;;;;;12.55;99.01;149262.25;5061181;28;20320;-65
2023/10/10 02:34:37;;;;;;;13.93;5.23;;;;;;;12.48;98.66;149243.53;5061998;28;20889;-65
2023/10/10 02:37:14;;;;;;;10.80;4.93;;;;;;;12.39;99.08;149222.34;5076713;28;20261;-65
2023/10/10 02:39:47;;;;;;;15.07;5.00;;;;;;;12.27;100.00;149193.63;5070484;28;20226;-65
2023/10/10 02:42:19;;;;;;;13.83;5.07;;;;;;;12.19;100.00;149173.72;5084285;28;20320;-65
2023/10/10 02:44:57;;;;;;;13.43;4.90;;;;;;;12.13;99.96;149158.78;5097862;28;20222;-65
2023/10/10 02:47:31;;;;;;;16.00;5.37;;;;;;;12.16;96.78;149167.47;5100080;28;20227;-65
2023/10/10 02:50:08;;;;;;;14.67;5.37;;;;;;;12.32;91.63;149206.09;5078288;28;20233;-64
2023/10/10 02:52:38;;;;;;;14.10;4.57;;;;;;;12.42;96.18;149229.81;5079825;28;20231;-64
2023/10/10 02:55:13;;;;;;;14.40;4.63;;;;;;;12.58;89.97;149267.25;5099740;28;20226;-64
2023/10/10 02:57:42;;;;;;;14.57;4.83;;;;;;;12.73;86.65;149304.59;5068295;28;20319;-64
2023/10/10 03:00:27;;;;;;;13.73;5.07;;;;;;;12.71;83.38;149299.66;5065112;28;20702;-64
2023/10/10 03:02:54;;;;;;;13.77;4.83;;;;;;;12.83;82.11;149329.56;5077327;28;20237;-64
2023/10/10 03:08:34;;;;;;;12.07;4.77;;;;;;;12.90;84.96;149344.53;5090856;27;20578;-64
2023/10/10 03:11:02;;;;;;;13.87;4.43;;;;;;;12.71;88.42;149299.66;5089352;27;20235;-64
2023/10/10 03:13:36;;;;;;;11.57;5.20;;;;;;;12.61;84.93;149275.94;5098697;27;20231;-64
2023/10/10 03:16:29;;;;;;;10.57;4.60;;;;;;;12.48;89.06;149244.78;5080844;28;20647;-64
2023/10/10 03:19:25;;;;;;;15.00;5.47;;;;;;;12.48;89.68;149243.53;5076510;28;20619;-64
2023/10/10 03:22:19;;;;;;;11.10;4.47;;;;;;;12.30;90.73;149199.91;5073767;28;20230;-64
2023/10/10 03:25:04;;;;;;;13.73;4.93;;;;;;;12.15;90.96;149163.75;5091440;27;20223;-64
2023/10/10 03:33:11;;;;;;;13.03;4.67;;;;;;;11.90;92.15;149103.88;5039524;23;20666;-64
2023/10/10 03:35:59;;;;;;;12.83;5.27;;;;;;;11.79;91.04;149078.94;4915266;29;20763;-64
2023/10/10 05:25:41;;;;;;;13.97;5.60;;;;;;;10.53;74.53;148773.72;4918050;29;20240;-64
2023/10/10 05:28:09;;;;;;;12.87;4.90;;;;;;;10.56;74.49;148782.41;4922964;29;20243;-64
2023/10/10 05:30:42;;;;;;;19.87;5.87;;;;;;;10.60;77.78;148792.38;4917399;29;20228;-64
2023/10/10 05:33:09;;;;;;;17.37;6.03;;;;;;;10.58;74.52;148787.41;4921956;29;20602;-64
2023/10/10 05:35:38;;;;;;;19.33;5.77;;;;;;;10.61;76.23;148793.59;4920423;29;20707;-64
2023/10/10 05:38:08;;;;;;;13.93;4.87;;;;;;;10.57;77.60;148783.69;4918137;29;20237;-64
2023/10/10 05:40:38;;;;;;;13.37;4.90;;;;;;;10.56;74.63;148782.41;4917719;29;20246;-64
2023/10/10 05:43:09;;;;;;;13.47;5.37;;;;;;;10.59;74.58;148788.69;4918473;29;20312;-64
2023/10/10 05:45:36;;;;;;;17.37;5.57;;;;;;;10.57;74.47;148783.69;4919522;29;20257;-64
2023/10/10 05:48:04;;;;;;;10.93;5.00;;;;;;;10.61;74.33;148793.59;4920553;29;20269;-64
2023/10/10 05:50:32;;;;;;;13.53;5.33;;;;;;;10.61;75.06;148794.88;4921730;29;20329;-64
2023/10/10 05:53:00;;;;;;;14.40;5.63;;;;;;;10.61;77.28;148794.88;4918772;29;20296;-64
2023/10/10 05:55:28;;;;;;;18.03;5.40;;;;;;;10.67;76.55;148808.56;4920423;29;20292;-64
2023/10/10 05:57:57;;;;;;;14.27;5.37;;;;;;;10.63;77.91;148799.84;4919695;29;20236;-64
2023/10/10 06:00:26;;;;;;;16.17;5.47;;;;;;;10.65;79.83;148802.34;4922439;29;20700;-64
2023/10/10 06:02:53;;;;;;;18.90;5.20;;;;;;;10.66;79.86;148806.06;4918553;29;20332;-64
2023/10/10 06:05:19;;;;;;;14.47;5.70;;;;;;;10.69;82.19;148812.31;4918506;29;20241;-64
2023/10/10 06:07:49;;;;;;;16.10;5.97;;;;;;;10.72;81.82;148821.00;4915833;29;20323;-64
2023/10/10 06:10:17;;;;;;;14.33;5.60;;;;;;;10.76;80.63;148829.75;4923005;29;20241;-64
2023/10/10 06:12:45;;;;;;;14.40;6.10;;;;;;;10.84;81.27;148849.69;4916624;29;20220;-64
2023/10/10 06:15:11;;;;;;;14.87;5.00;;;;;;;10.97;81.63;148880.81;4919940;29;20233;-64
2023/10/10 06:17:42;;;;;;;14.03;5.40;;;;;;;11.07;81.91;148904.50;4932769;29;20395;-64
2023/10/10 06:20:15;;;;;;;12.40;4.60;;;;;;;11.20;79.26;148936.84;4919213;29;20260;-64
2023/10/10 06:22:44;;;;;;;14.10;5.63;;;;;;;11.37;81.06;148976.72;4917380;29;20229;-64
2023/10/10 06:25:11;;;;;;;16.43;5.77;;;;;;;11.57;80.38;149025.34;4920011;29;20240;-64
2023/10/10 06:27:45;;;;;;;16.57;5.63;;;;;;;11.70;80.02;149056.50;4916728;29;20299;-64
2023/10/10 06:30:17;;;;;;;13.43;4.73;;;;;;;11.94;80.33;149113.84;4920248;29;20310;-64
2023/10/10 06:32:46;;;;;;;16.87;5.27;;;;;;;12.01;80.69;149130.06;4917163;29;20244;-64
2023/10/10 06:35:27;;;;;;;13.40;5.00;;;;;;;12.11;82.71;149155.00;4919979;28;20658;-64
2023/10/10 06:37:54;;;;;;;25.17;6.07;;;;;;;12.26;83.84;149191.16;4916513;29;20240;-64
2023/10/10 06:40:25;;;;;;;17.83;5.10;;;;;;;12.36;83.73;149214.84;4922271;29;20233;-64
2023/10/10 06:42:56;;;;;;;17.00;5.30;;;;;;;12.55;79.60;149260.97;4917755;29;20242;-64
2023/10/10 06:45:24;;;;;;;14.37;5.10;;;;;;;12.66;80.47;149287.19;4920426;29;20246;-64
2023/10/10 06:47:51;;;;;;;13.73;5.67;;;;;;;12.75;84.25;149309.59;4917964;29;20717;-64
2023/10/10 06:50:21;;;;;;;15.90;5.67;;;;;;;12.85;85.52;149333.31;4919966;29;20681;-65
2023/10/10 06:52:52;;;;;;;12.97;4.87;;;;;;;12.97;84.90;149363.25;4917324;29;20236;-65
2023/10/10 06:55:22;;;;;;;19.13;5.67;;;;;;;13.10;86.26;149394.44;4918847;29;20242;-65
2023/10/10 06:57:59;;;;;;;15.97;5.00;;;;;;;13.22;86.94;149421.88;4917073;29;20243;-65
2023/10/10 07:00:38;;;;;;;18.27;5.57;;;;;;;13.32;88.25;149446.81;4921010;29;20255;-65
2023/10/10 07:03:05;;;;;;;16.53;5.73;;;;;;;13.42;85.10;149471.84;4915906;29;20255;-65
2023/10/10 07:05:34;;;;;;;11.03;5.03;;;;;;;13.55;83.47;149501.78;4919703;29;20241;-65
2023/10/10 07:08:12;;;;;;;16.47;4.90;;;;;;;13.69;84.50;149536.72;4917281;29;20232;-65
2023/10/10 07:10:42;;;;;;;15.50;5.33;;;;;;;13.83;85.75;149570.41;4899335;29;20692;-65
2023/10/10 07:13:13;;;;;;;22.90;6.23;;;;;;;13.92;86.90;149591.59;4907708;29;20979;-65
2023/10/10 07:15:41;;;;;;;18.37;5.37;;;;;;;13.99;87.42;149607.84;4913720;29;20641;-65
2023/10/10 07:18:15;;;;;;;18.03;4.97;;;;;;;14.11;86.73;149636.53;4920879;29;20241;-65
2023/10/10 07:23:36;;;;;;;13.03;5.23;;;;;;;14.30;86.80;149682.75;4919130;29;20234;-65
2023/10/10 07:26:05;;;;;;;21.63;6.13;;;;;;;14.40;87.66;149707.69;4917199;29;20225;-65
2023/10/10 07:28:47;;;;;;;14.90;5.40;;;;;;;14.46;91.31;149722.66;4916314;29;20670;-65
2023/10/10 07:31:18;;;;;;;15.10;5.30;;;;;;;14.54;90.10;149741.41;4904510;29;20258;-65
2023/10/10 07:33:54;;;;;;;12.80;5.43;;;;;;;14.64;89.51;149765.13;4912301;29;20620;-65
2023/10/10 07:36:24;;;;;;;11.27;5.00;;;;;;;14.77;87.46;149796.41;4918727;29;20228;-65
2023/10/10 07:38:54;;;;;;;13.93;4.43;;;;;;;14.88;86.72;149822.63;4907195;29;20230;-65
2023/10/10 07:41:24;;;;;;;15.00;4.70;;;;;;;14.98;88.35;149846.31;4919646;29;20234;-65
2023/10/10 07:43:58;;;;;;;18.17;5.13;;;;;;;15.09;88.82;149872.59;4915330;29;20231;-65
2023/10/10 07:46:27;;;;;;;12.10;4.90;;;;;;;15.22;87.71;149903.78;4921219;29;20721;-65
2023/10/10 07:48:54;;;;;;;16.27;5.20;;;;;;;15.30;85.58;149923.78;4921244;29;20295;-65
2023/10/10 07:51:28;;;;;;;12.47;5.40;;;;;;;15.50;82.49;149973.75;4919615;29;20315;-65
2023/10/10 07:54:12;;;;;;;12.83;5.73;;;;;;;15.73;82.47;150028.72;4920363;29;20230;-65
2023/10/10 07:56:45;;;;;;;19.27;5.20;;;;;;;16.00;80.64;150092.50;4921216;29;20241;-65
2023/10/10 07:59:13;;;;;;;15.93;5.33;;;;;;;16.25;79.16;150153.72;4918744;29;20306;-65
2023/10/10 08:01:41;;;;;;;15.90;4.90;;;;;;;16.54;78.31;150223.72;4923878;29;20227;-65
2023/10/10 08:04:08;;;;;;;15.77;5.20;;;;;;;16.64;80.61;150248.72;4924281;29;20267;-65
2023/10/10 08:06:35;;;;;;;14.70;4.80;;;;;;;16.99;77.75;150331.25;4918575;29;20320;-65
2023/10/10 08:09:18;;;;;;;16.80;6.30;;;;;;;17.19;76.74;150380.06;4922998;29;20344;-65
2023/10/10 08:11:45;;;;;;;18.67;4.97;;;;;;;17.32;75.59;150412.56;4916779;29;20693;-65
2023/10/10 08:14:15;;;;;;;16.03;5.07;;;;;;;17.55;74.83;150468.84;4919697;29;20816;-65
2023/10/10 08:16:45;;;;;;;15.63;4.87;;;;;;;17.69;73.94;150502.59;4913114;29;20232;-65
2023/10/10 08:19:13;;;;;;;15.33;5.17;;;;;;;17.77;74.31;150521.38;4921996;29;20240;-65
2023/10/10 08:21:48;;;;;;;17.40;5.23;;;;;;;17.81;74.48;150530.13;4917710;29;20228;-65
2023/10/10 08:24:15;;;;;;;16.57;5.13;;;;;;;17.88;74.28;150547.66;4920504;29;20243;-65
2023/10/10 08:26:44;;;;;;;19.53;6.20;;;;;;;17.68;74.27;150498.88;4917168;29;20245;-65
2023/10/10 08:29:13;;;;;;;13.23;5.17;;;;;;;17.73;72.43;150511.38;4918491;29;20239;-65
2023/10/10 08:31:42;;;;;;;16.17;5.23;;;;;;;17.77;72.55;150521.38;4919070;29;20719;-65
2023/10/10 08:34:09;;;;;;;19.07;5.53;;;;;;;17.82;73.08;150533.91;4921209;29;20243;-65
2023/10/10 08:36:37;;;;;;;18.27;5.90;;;;;;;18.03;71.55;150583.94;4920703;29;20252;-65
2023/10/10 08:39:17;;;;;;;16.03;5.63;;;;;;;18.13;71.81;150608.97;4916559;29;20268;-65
2023/10/10 08:41:44;;;;;;;18.17;5.70;;;;;;;18.16;70.45;150615.25;4914720;29;20277;-65
2023/10/10 08:44:14;;;;;;;21.00;5.50;;;;;;;18.26;70.53;150639.00;4921347;29;20221;-65
2023/10/10 08:46:46;;;;;;;14.30;4.80;;;;;;;18.48;70.54;150691.59;4916462;29;20219;-65
2023/10/10 08:49:14;;;;;;;20.63;4.97;;;;;;;18.56;70.78;150711.59;4921369;29;20257;-66
2023/10/10 08:51:43;;;;;;;17.40;6.70;;;;;;;18.53;69.61;150705.38;4918531;29;20245;-66
2023/10/10 08:54:11;;;;;;;18.87;6.20;;;;;;;18.51;70.70;150699.09;4921398;29;20257;-65
2023/10/10 08:56:39;;;;;;;20.77;6.20;;;;;;;18.48;70.93;150691.59;4918806;29;20225;-66
2023/10/10 08:59:09;;;;;;;18.00;5.77;;;;;;;18.43;70.88;150681.56;4920637;29;21181;-66
2023/10/10 09:01:36;;;;;;;19.60;5.70;;;;;;;18.50;71.59;150696.59;4917634;29;20221;-66
2023/10/10 09:04:04;;;;;;;17.73;5.27;;;;;;;18.34;70.19;150659.03;4923342;29;20229;-65
2023/10/10 09:06:42;;;;;;;19.83;5.87;;;;;;;18.12;71.80;150606.47;4922010;29;20233;-65
2023/10/10 09:09:33;;;;;;;18.40;6.50;;;;;;;18.08;71.60;150595.25;4918797;29;20900;-65
2023/10/10 09:11:57;;;;;;;14.60;5.83;;;;;;;18.08;72.65;150596.47;4909713;29;20728;-65
2023/10/10 09:14:39;;;;;;;17.70;6.27;;;;;;;18.02;74.07;150581.44;4921246;29;20236;-65
2023/10/10 09:17:08;;;;;;;25.50;5.77;;;;;;;18.20;71.88;150624.00;4917328;29;20235;-64
2023/10/10 09:19:39;;;;;;;21.03;5.60;;;;;;;18.20;73.05;150624.00;4909270;29;20226;-63
2023/10/10 09:22:12;;;;;;;19.23;5.67;;;;;;;18.36;72.00;150662.81;4922634;29;20320;-64
2023/10/10 09:24:41;;;;;;;14.83;4.73;;;;;;;18.42;72.56;150677.84;4917908;29;20260;-64
2023/10/10 09:27:21;;;;;;;18.23;5.93;;;;;;;18.28;72.98;150644.03;4927808;29;20250;-65
2023/10/10 09:29:54;;;;;;;20.57;6.07;;;;;;;18.57;73.13;150714.13;4911626;29;20229;-64
2023/10/10 09:32:30;;;;;;;16.83;6.13;;;;;;;18.80;72.26;150769.19;4921033;29;20235;-65
2023/10/10 09:34:59;;;;;;;20.20;5.57;;;;;;;19.08;72.17;150838.06;4904799;29;20240;-65
2023/10/10 09:37:35;;;;;;;15.43;5.53;;;;;;;19.36;72.11;150904.41;4908338;29;20661;-65
2023/10/10 09:40:05;;;;;;;15.13;4.60;;;;;;;19.61;71.01;150965.75;4906610;29;20315;-65
2023/10/10 09:43:03;;;;;;;18.57;5.53;;;;;;;19.81;69.50;151014.63;4915180;29;20646;-64
2023/10/10 09:48:33;;;;;;;17.77;5.37;;;;;;;20.00;66.78;151059.78;4931256;23;20235;-53
2023/10/10 09:51:16;;;;;;;22.40;5.67;;;;;;;19.94;68.83;151044.75;4917338;28;20584;-52
2023/10/10 09:53:46;;;;;;;16.60;4.93;;;;;;;20.17;67.79;151102.31;4916890;28;20234;-51
2023/10/10 09:56:15;;;;;;;17.03;5.83;;;;;;;20.20;68.03;151108.63;4918980;29;20232;-53
2023/10/10 09:58:46;;;;;;;19.17;5.30;;;;;;;20.30;69.40;151132.41;4917602;28;20234;-51
2023/10/10 10:01:22;;;;;;;15.27;5.37;;;;;;;20.20;67.90;151109.84;4920101;28;20331;-51
2023/10/10 10:04:00;;;;;;;18.63;4.90;;;;;;;20.21;67.52;151112.34;4916649;29;20290;-51
2023/10/10 10:06:54;;;;;;;18.97;5.23;;;;;;;20.10;67.86;151084.84;4917934;29;20598;-51
2023/10/10 10:09:45;;;;;;;14.70;4.40;;;;;;;20.26;66.83;151122.38;4917220;29;20238;-51
2023/10/10 10:12:30;;;;;;;18.43;4.83;;;;;;;20.39;66.96;151154.94;4913736;29;20246;-53
2023/10/10 10:15:12;;;;;;;12.23;4.60;;;;;;;20.45;66.91;151170.00;4914118;29;20333;-51
2023/10/10 10:17:54;;;;;;;16.73;4.73;;;;;;;20.49;66.57;151178.78;4915524;29;20358;-52
2023/10/10 10:20:33;;;;;;;20.00;4.87;;;;;;;20.53;66.98;151188.81;4920477;29;20294;-51
2023/10/10 10:23:01;;;;;;;17.47;5.07;;;;;;;20.48;68.18;151177.50;4916176;29;20239;-51
2023/10/10 10:25:31;;;;;;;19.63;5.60;;;;;;;20.56;68.20;151195.06;4923926;29;20226;-51
2023/10/10 10:28:10;;;;;;;17.53;5.60;;;;;;;20.64;67.21;151216.38;4911679;29;20763;-52
2023/10/10 10:30:47;;;;;;;21.93;6.13;;;;;;;20.71;67.78;151232.66;4915647;29;20299;-50
2023/10/10 10:33:15;;;;;;;20.77;5.67;;;;;;;20.75;67.79;151241.41;4913476;29;20226;-51
2023/10/10 10:36:14;;;;;;;19.53;5.50;;;;;;;20.74;66.97;151238.88;4916742;29;20231;-53
2023/10/10 10:41:42;;;;;;;20.13;5.13;;;;;;;20.76;68.77;151245.19;4923402;29;20239;-52
2023/10/10 10:44:12;;;;;;;17.10;5.20;;;;;;;21.02;68.12;151306.63;4918283;29;20870;-51
2023/10/10 10:46:41;;;;;;;19.17;5.10;;;;;;;21.12;66.89;151330.47;4913080;29;20316;-51
2023/10/10 10:49:09;;;;;;;22.60;5.37;;;;;;;21.21;66.27;151352.97;4920595;29;20240;-51
2023/10/10 10:51:42;;;;;;;20.47;5.27;;;;;;;21.18;66.90;151346.72;4918204;29;20237;-52
2023/10/10 10:54:29;;;;;;;19.20;5.53;;;;;;;21.32;66.25;151379.31;4917710;29;20252;-53
2023/10/10 10:57:01;;;;;;;22.63;5.73;;;;;;;21.33;66.15;151383.06;4919204;29;20224;-52
2023/10/10 10:59:35;;;;;;;15.83;5.10;;;;;;;21.44;66.36;151408.13;4920144;29;20225;-51
2023/10/10 11:02:13;;;;;;;16.23;5.90;;;;;;;21.57;66.44;151440.72;4912935;29;20558;-52
2023/10/10 11:04:46;;;;;;;18.73;5.50;;;;;;;21.39;65.52;151396.88;4918264;29;20229;-51
2023/10/10 11:07:26;;;;;;;15.80;5.67;;;;;;;21.49;66.13;151420.66;4919297;29;20972;-52
2023/10/10 11:10:06;;;;;;;15.20;5.60;;;;;;;21.70;65.17;151470.88;4917508;29;20235;-53
2023/10/10 11:12:36;;;;;;;19.00;6.13;;;;;;;21.53;65.93;151431.97;4917703;29;20256;-51
2023/10/10 11:15:07;;;;;;;15.63;5.17;;;;;;;21.64;66.18;151457.09;4913699;29;20239;-53
2023/10/10 11:17:39;;;;;;;19.57;6.20;;;;;;;21.65;65.18;151459.63;4909120;28;20757;-53
2023/10/10 11:22:55;;;;;;;24.13;5.97;;;;;;;21.70;65.33;151470.88;4913099;29;20234;-51
2023/10/10 11:25:29;;;;;;;19.47;5.27;;;;;;;21.94;65.14;151531.06;4919881;29;20311;-51
2023/10/10 11:28:03;;;;;;;17.27;5.33;;;;;;;21.97;65.90;151537.31;4918631;29;20317;-53
2023/10/10 11:30:30;;;;;;;23.40;5.53;;;;;;;21.97;64.61;151538.59;4923316;29;20237;-53
2023/10/10 11:33:16;;;;;;;16.10;4.97;;;;;;;22.04;64.54;151554.88;4920314;29;20708;-52
2023/10/10 11:35:46;;;;;;;22.63;5.53;;;;;;;22.33;63.01;151625.13;4919777;29;20252;-54
2023/10/10 11:38:33;;;;;;;20.57;4.67;;;;;;;22.34;63.11;151627.63;4925050;29;20234;-51
2023/10/10 11:41:08;;;;;;;19.97;5.57;;;;;;;22.48;63.85;151661.50;4923263;29;20256;-53
2023/10/10 11:43:38;;;;;;;17.60;5.13;;;;;;;22.69;62.47;151711.69;4919430;29;20711;-54
2023/10/10 11:46:06;;;;;;;27.10;6.27;;;;;;;22.72;61.62;151719.22;4927993;29;20323;-53
2023/10/10 11:48:42;;;;;;;18.97;5.80;;;;;;;22.72;62.57;151719.22;4920456;29;20237;-53
2023/10/10 11:51:11;;;;;;;13.70;4.60;;;;;;;22.94;62.10;151771.91;4921547;29;20239;-53
2023/10/10 11:53:39;;;;;;;21.03;5.47;;;;;;;23.02;61.10;151792.00;4921044;29;20265;-51
2023/10/10 11:56:11;;;;;;;21.43;5.37;;;;;;;23.12;61.43;151817.09;4913242;29;20256;-53
2023/10/10 11:58:38;;;;;;;17.30;5.43;;;;;;;23.32;59.70;151863.53;4920724;29;20245;-52
2023/10/10 12:01:06;;;;;;;16.87;5.70;;;;;;;23.28;60.04;151854.78;4923618;29;20252;-52
2023/10/10 12:03:41;;;;;;;15.97;4.70;;;;;;;23.38;60.69;151879.84;4919564;29;20234;-55
2023/10/10 12:06:14;;;;;;;25.13;5.07;;;;;;;23.25;60.15;151848.50;4924138;29;20232;-51
2023/10/10 12:08:44;;;;;;;20.60;5.43;;;;;;;23.34;60.55;151868.56;4919498;29;20231;-51
2023/10/10 12:11:12;;;;;;;18.97;4.83;;;;;;;23.68;59.78;151952.63;4921843;29;20250;-52
2023/10/10 12:13:39;;;;;;;21.40;5.40;;;;;;;23.48;58.33;151902.44;4921927;29;20776;-52
2023/10/10 12:16:10;;;;;;;18.27;4.50;;;;;;;23.63;58.58;151938.84;4926163;29;20243;-51
2023/10/10 12:18:43;;;;;;;16.80;4.87;;;;;;;23.91;57.52;152006.59;4922236;29;20319;-56
2023/10/10 12:21:13;;;;;;;22.33;5.40;;;;;;;23.96;57.60;152019.13;4921380;29;20243;-56
2023/10/10 12:23:40;;;;;;;20.30;4.63;;;;;;;24.31;55.79;152104.56;4915871;29;20233;-51
2023/10/10 12:26:11;;;;;;;20.30;4.67;;;;;;;24.32;57.10;152108.34;4914791;29;20262;-53
2023/10/10 12:28:38;;;;;;;16.43;5.17;;;;;;;23.96;58.78;152020.41;4914378;29;20298;-53
2023/10/10 12:31:16;;;;;;;18.90;4.87;;;;;;;24.29;55.16;152099.53;4918377;29;20257;-55
2023/10/10 12:34:00;;;;;;;19.90;5.57;;;;;;;24.03;56.08;152036.78;4874777;29;21227;-54
2023/10/10 12:36:33;;;;;;;11.40;4.37;;;;;;;24.10;56.46;152054.34;4904307;28;20624;-54
2023/10/10 12:39:15;;;;;;;16.03;4.90;;;;;;;23.45;57.74;151896.19;4909071;29;20229;-54
2023/10/10 12:41:55;;;;;;;16.73;4.60;;;;;;;23.33;58.08;151866.06;4834946;29;20664;-54
2023/10/10 12:44:23;;;;;;;22.33;5.60;;;;;;;23.58;59.23;151927.53;4864868;29;20245;-55
2023/10/10 12:46:54;;;;;;;16.50;4.60;;;;;;;23.70;57.32;151957.66;4864589;29;20747;-53
2023/10/10 12:49:28;;;;;;;26.50;4.73;;;;;;;23.39;57.81;151881.13;4907809;29;20316;-51
2023/10/10 12:51:57;;;;;;;17.70;4.77;;;;;;;23.51;56.40;151911.25;4910920;29;20710;-51
2023/10/10 12:54:27;;;;;;;11.03;4.23;;;;;;;23.45;57.40;151896.19;4913971;29;20230;-51
2023/10/10 12:57:01;;;;;;;19.03;4.63;;;;;;;23.11;55.98;151814.56;4869992;29;20334;-51
2023/10/10 12:59:28;;;;;;;16.50;4.60;;;;;;;23.32;55.12;151863.53;4916127;29;20740;-52
2023/10/10 13:01:59;;;;;;;14.77;3.83;;;;;;;23.44;51.35;151894.91;4913287;29;20328;-51
2023/10/10 13:04:29;;;;;;;16.17;4.43;;;;;;;23.26;51.64;151849.75;4916814;29;20233;-51
2023/10/10 13:07:02;;;;;;;25.40;4.90;;;;;;;23.18;51.64;151829.63;4912551;29;20297;-53
2023/10/10 13:09:29;;;;;;;17.90;4.60;;;;;;;23.11;51.46;151814.56;4915381;29;20251;-52
2023/10/10 13:11:57;;;;;;;18.73;4.87;;;;;;;23.23;50.92;151843.47;4918360;29;20242;-51
2023/10/10 13:14:29;;;;;;;26.37;5.33;;;;;;;23.10;52.45;151812.06;4920882;29;20238;-51
2023/10/10 13:17:13;;;;;;;18.77;5.23;;;;;;;23.29;52.10;151858.53;4915694;29;20233;-54
2023/10/10 13:19:41;;;;;;;18.97;4.90;;;;;;;23.39;52.57;151882.34;4918047;29;20353;-54
2023/10/10 13:22:08;;;;;;;25.10;5.20;;;;;;;23.40;54.19;151884.84;4916353;29;20455;-54
2023/10/10 13:24:35;;;;;;;15.13;4.87;;;;;;;23.47;54.53;151899.91;4915845;29;20232;-52
2023/10/10 13:27:06;;;;;;;24.63;5.07;;;;;;;23.70;53.74;151956.44;4922590;29;20233;-51
2023/10/10 13:29:33;;;;;;;19.73;4.93;;;;;;;23.74;53.72;151966.47;4917361;29;20237;-52
2023/10/10 13:32:00;;;;;;;18.93;4.80;;;;;;;23.56;54.62;151922.50;4923747;29;20241;-53
2023/10/10 13:34:26;;;;;;;21.80;4.47;;;;;;;23.78;52.83;151976.50;4922297;29;20246;-53
2023/10/10 13:36:53;;;;;;;16.90;4.27;;;;;;;23.80;52.94;151981.53;4914984;29;20295;-54
2023/10/10 13:39:33;;;;;;;20.43;4.33;;;;;;;23.70;52.53;151956.44;4920166;29;20229;-53
2023/10/10 13:41:59;;;;;;;17.80;4.53;;;;;;;23.79;51.95;151979.03;4918005;29;20335;-54
2023/10/10 13:44:27;;;;;;;18.57;4.60;;;;;;;23.77;51.59;151974.00;4918487;29;20237;-53
2023/10/10 13:46:54;;;;;;;17.10;4.73;;;;;;;23.84;52.26;151991.56;4907033;29;20255;-51